createdAt,value
2018-03-19T00:00:42.857Z,9.67
2018-03-19T00:03:11.302Z,7.73
2018-03-19T00:05:39.712Z,8.10
2018-03-19T00:08:08.123Z,10.20
2018-03-19T00:10:36.579Z,8.37
2018-03-19T00:13:04.991Z,8.10
2018-03-19T00:15:33.399Z,9.40
2018-03-19T00:18:01.856Z,8.53
2018-03-19T00:20:30.267Z,7.30
2018-03-19T00:22:58.670Z,7.97
2018-03-19T00:25:27.114Z,8.53
2018-03-19T00:27:55.541Z,8.60
2018-03-19T00:30:23.960Z,9.43
2018-03-19T00:32:52.404Z,7.90
2018-03-19T00:35:20.811Z,10.10
2018-03-19T00:37:49.223Z,8.03
2018-03-19T00:40:17.698Z,10.93
2018-03-19T00:42:46.141Z,7.17
2018-03-19T00:45:14.549Z,6.80
2018-03-19T00:47:43.001Z,7.23
2018-03-19T00:50:11.428Z,8.38
2018-03-19T00:52:39.844Z,11.67
2018-03-19T00:55:08.308Z,8.17
2018-03-19T00:57:36.723Z,9.37
2018-03-19T01:00:05.176Z,10.73
2018-03-19T01:02:33.638Z,10.23
2018-03-19T01:05:02.062Z,9.73
2018-03-19T01:07:30.481Z,7.97
2018-03-19T01:09:58.940Z,12.93
2018-03-19T01:12:27.360Z,8.02
2018-03-19T01:14:55.762Z,7.83
2018-03-19T01:17:24.198Z,9.60
2018-03-19T01:19:52.593Z,9.50
2018-03-19T01:22:21.004Z,7.60
2018-03-19T01:24:49.450Z,7.60
2018-03-19T01:27:17.860Z,5.90
2018-03-19T01:29:46.253Z,7.33
2018-03-19T01:32:14.718Z,8.90
2018-03-19T01:34:43.129Z,9.88
2018-03-19T01:37:11.539Z,7.70
2018-03-19T01:39:40.002Z,9.95
2018-03-19T01:42:08.423Z,7.20
2018-03-19T01:44:36.836Z,9.63
2018-03-19T01:47:05.288Z,8.30
2018-03-19T01:49:33.714Z,9.90
2018-03-19T01:52:02.137Z,7.93
2018-03-19T01:54:30.616Z,6.90
2018-03-19T01:56:59.014Z,7.73
2018-03-19T01:59:27.414Z,10.77
2018-03-19T02:01:55.896Z,6.70
2018-03-19T02:04:24.310Z,8.98
2018-03-19T02:06:52.730Z,7.85
2018-03-19T02:09:21.451Z,11.23
2018-03-19T02:11:49.875Z,7.47
2018-03-19T02:14:18.301Z,11.27
2018-03-19T02:16:46.768Z,8.68
2018-03-19T02:19:15.197Z,9.98
2018-03-19T02:21:43.629Z,8.23
2018-03-19T02:24:12.096Z,7.50
2018-03-19T02:26:40.516Z,7.45
2018-03-19T02:29:08.944Z,9.48
2018-03-19T02:31:37.408Z,8.10
2018-03-19T02:34:05.834Z,7.20
2018-03-19T02:36:34.257Z,11.47
2018-03-19T02:39:02.739Z,8.70
2018-03-19T02:41:31.142Z,8.23
2018-03-19T02:43:59.555Z,7.25
2018-03-19T02:46:28.011Z,8.25
2018-03-19T02:48:56.443Z,10.07
2018-03-19T02:51:24.842Z,6.60
2018-03-19T02:53:53.323Z,11.98
2018-03-19T02:56:21.726Z,9.27
2018-03-19T02:58:50.129Z,8.10
2018-03-19T03:01:18.592Z,7.53
2018-03-19T03:03:47.025Z,11.63
2018-03-19T03:06:15.448Z,11.32
2018-03-19T03:08:43.918Z,9.93
2018-03-19T03:11:12.340Z,7.62
2018-03-19T03:13:41.527Z,9.88
2018-03-19T03:16:09.987Z,7.72
2018-03-19T03:18:38.398Z,8.90
2018-03-19T03:21:06.817Z,8.88
2018-03-19T03:23:35.274Z,7.57
2018-03-19T03:26:03.718Z,9.10
2018-03-19T03:28:32.134Z,12.43
2018-03-19T03:31:00.597Z,7.72
2018-03-19T03:33:29.048Z,10.40
2018-03-19T03:35:57.462Z,7.62
2018-03-19T03:38:25.968Z,9.73
2018-03-19T03:40:54.396Z,8.30
2018-03-19T03:43:22.820Z,9.20
2018-03-19T03:45:51.288Z,11.07
2018-03-19T03:48:19.713Z,9.85
2018-03-19T03:50:48.145Z,9.55
2018-03-19T03:53:16.629Z,12.43
2018-03-19T03:55:45.023Z,8.87
2018-03-19T03:58:13.449Z,9.05
2018-03-19T04:00:41.916Z,9.40
2018-03-19T04:03:10.357Z,13.50
2018-03-19T04:05:38.771Z,9.38
2018-03-19T04:08:07.227Z,10.35
2018-03-19T04:10:35.688Z,10.43
2018-03-19T04:13:04.130Z,12.25
2018-03-19T04:15:32.764Z,9.90
2018-03-19T04:18:01.191Z,10.23
2018-03-19T04:20:29.623Z,10.40
2018-03-19T04:22:58.096Z,8.05
2018-03-19T04:25:26.514Z,11.65
2018-03-19T04:27:54.936Z,8.88
2018-03-19T04:30:23.428Z,11.85
2018-03-19T04:32:51.842Z,12.37
2018-03-19T04:35:20.273Z,9.30
2018-03-19T04:37:48.710Z,8.23
2018-03-19T04:40:17.130Z,10.27
2018-03-19T04:42:45.548Z,9.32
2018-03-19T04:45:14.002Z,10.77
2018-03-19T04:47:42.415Z,11.07
2018-03-19T04:50:10.842Z,9.75
2018-03-19T04:52:39.301Z,7.68
2018-03-19T04:55:07.730Z,11.48
2018-03-19T04:57:36.156Z,10.10
2018-03-19T05:00:04.652Z,9.55
2018-03-19T05:02:33.078Z,10.63
2018-03-19T05:05:01.486Z,9.98
2018-03-19T05:07:29.957Z,11.70
2018-03-19T05:09:58.370Z,11.48
2018-03-19T05:12:26.780Z,12.80
2018-03-19T05:14:55.252Z,13.40
2018-03-19T05:17:23.673Z,9.77
2018-03-19T05:19:52.098Z,10.80
2018-03-19T05:22:20.653Z,14.18
2018-03-19T05:24:49.071Z,13.40
2018-03-19T05:27:17.496Z,11.23
2018-03-19T05:29:45.975Z,11.68
2018-03-19T05:32:14.402Z,9.80
2018-03-19T05:34:42.809Z,12.20
2018-03-19T05:37:11.538Z,9.35
2018-03-19T05:39:39.956Z,11.90
2018-03-19T05:42:08.384Z,12.10
2018-03-19T05:44:36.850Z,9.32
2018-03-19T05:47:05.261Z,10.38
2018-03-19T05:49:33.692Z,17.83
2018-03-19T05:52:02.154Z,19.92
2018-03-19T05:54:30.586Z,16.23
2018-03-19T05:56:59.016Z,15.02
2018-03-19T05:59:27.496Z,12.25
2018-03-19T06:01:55.919Z,10.35
2018-03-19T06:04:24.334Z,13.35
2018-03-19T06:06:52.804Z,11.48
2018-03-19T06:09:21.223Z,10.30
2018-03-19T06:11:49.657Z,16.77
2018-03-19T06:14:18.134Z,9.70
2018-03-19T06:16:46.546Z,9.98
2018-03-19T06:19:14.957Z,10.93
2018-03-19T06:21:43.414Z,10.68
2018-03-19T06:24:11.825Z,11.50
2018-03-19T06:26:40.250Z,12.98
2018-03-19T06:29:08.720Z,11.10
2018-03-19T06:31:37.139Z,12.23
2018-03-19T06:34:05.562Z,13.82
2018-03-19T06:36:34.035Z,8.82
2018-03-19T06:39:02.454Z,10.15
2018-03-19T06:41:30.886Z,10.50
2018-03-19T06:43:59.351Z,11.27
2018-03-19T06:46:27.776Z,12.93
2018-03-19T06:48:56.227Z,12.33
2018-03-19T06:51:24.688Z,15.03
2018-03-19T06:53:53.124Z,12.67
2018-03-19T06:56:21.538Z,11.63
2018-03-19T06:58:50.000Z,9.33
2018-03-19T07:01:18.411Z,13.97
2018-03-19T07:03:46.828Z,16.43
2018-03-19T07:06:15.292Z,9.60
2018-03-19T07:08:43.707Z,13.57
2018-03-19T07:11:12.138Z,9.70
2018-03-19T07:13:40.599Z,10.63
2018-03-19T07:16:09.203Z,10.13
2018-03-19T07:18:37.618Z,9.50
2018-03-19T07:21:06.082Z,10.60
2018-03-19T07:23:34.491Z,12.50
2018-03-19T07:26:02.902Z,13.93
2018-03-19T07:28:31.354Z,13.13
2018-03-19T07:30:59.771Z,12.83
2018-03-19T07:33:28.209Z,13.07
2018-03-19T07:35:56.662Z,10.40
2018-03-19T07:38:25.079Z,11.53
2018-03-19T07:40:53.549Z,10.30
2018-03-19T07:43:22.148Z,11.30
2018-03-19T07:45:50.498Z,14.23
2018-03-19T07:48:18.912Z,12.90
2018-03-19T07:50:47.375Z,10.43
2018-03-19T07:53:15.790Z,11.53
2018-03-19T07:55:44.207Z,13.23
2018-03-19T07:58:12.659Z,11.87
2018-03-19T08:00:41.074Z,15.20
2018-03-19T08:03:09.523Z,13.57
2018-03-19T08:05:37.999Z,13.63
2018-03-19T08:08:06.422Z,14.87
2018-03-19T08:10:34.838Z,14.30
2018-03-19T08:13:03.302Z,12.47
2018-03-19T08:15:31.725Z,15.73
2018-03-19T08:18:00.142Z,12.60
2018-03-19T08:20:28.607Z,11.50
2018-03-19T08:22:57.032Z,12.10
2018-03-19T08:25:25.441Z,18.53
2018-03-19T08:27:54.000Z,11.07
2018-03-19T08:30:22.414Z,13.70
2018-03-19T08:32:50.848Z,10.97
2018-03-19T08:35:19.314Z,12.33
2018-03-19T08:37:47.726Z,10.77
2018-03-19T08:40:16.138Z,17.23
2018-03-19T08:42:44.609Z,12.47
2018-03-19T08:45:13.028Z,9.87
2018-03-19T08:47:41.447Z,11.00
2018-03-19T08:50:09.908Z,17.30
2018-03-19T08:52:38.328Z,9.73
2018-03-19T08:55:06.756Z,13.47
2018-03-19T08:57:35.205Z,15.17
2018-03-19T09:00:03.668Z,10.27
2018-03-19T09:02:32.082Z,11.73
2018-03-19T09:05:00.554Z,13.83
2018-03-19T09:07:28.980Z,9.33
2018-03-19T09:09:57.397Z,14.63
2018-03-19T09:12:25.882Z,17.07
2018-03-19T09:14:54.303Z,13.57
2018-03-19T09:17:22.728Z,10.47
2018-03-19T09:19:51.203Z,10.23
2018-03-19T09:22:19.640Z,13.33
2018-03-19T09:24:48.053Z,12.37
2018-03-19T09:27:16.516Z,11.40
2018-03-19T09:29:44.955Z,13.17
2018-03-19T09:32:13.407Z,12.73
2018-03-19T09:34:41.862Z,11.30
2018-03-19T09:37:10.340Z,11.63
2018-03-19T09:39:38.756Z,8.73
2018-03-19T09:42:07.220Z,12.10
2018-03-19T09:44:35.640Z,10.77
2018-03-19T09:47:04.045Z,14.37
2018-03-19T09:49:32.490Z,12.13
2018-03-19T09:52:00.894Z,9.40
2018-03-19T09:54:29.294Z,11.97
2018-03-19T09:56:57.759Z,11.50
2018-03-19T09:59:26.163Z,9.33
2018-03-19T10:01:54.585Z,13.57
2018-03-19T10:04:23.062Z,9.57
2018-03-19T10:06:51.480Z,12.00
2018-03-19T10:09:19.911Z,10.60
2018-03-19T10:11:48.390Z,12.33
2018-03-19T10:14:16.809Z,11.73
2018-03-19T10:16:45.219Z,10.07
2018-03-19T10:19:13.657Z,9.13
2018-03-19T10:21:42.111Z,10.83
2018-03-19T10:24:10.543Z,10.63
2018-03-19T10:26:39.006Z,11.50
2018-03-19T10:29:07.428Z,10.57
2018-03-19T10:31:35.835Z,14.03
2018-03-19T10:34:04.309Z,15.57
2018-03-19T10:36:32.724Z,14.27
2018-03-19T10:39:01.129Z,12.47
2018-03-19T10:41:29.585Z,10.07
2018-03-19T10:43:58.036Z,13.60
2018-03-19T10:46:26.456Z,11.53
2018-03-19T10:48:54.906Z,9.07
2018-03-19T10:51:23.310Z,10.87
2018-03-19T10:53:51.716Z,10.20
2018-03-19T10:56:20.190Z,9.20
2018-03-19T10:58:48.612Z,13.13
2018-03-19T11:01:22.745Z,11.37
2018-03-19T11:03:56.791Z,10.33
2018-03-19T11:06:30.837Z,10.57
2018-03-19T11:09:04.894Z,9.57
2018-03-19T11:11:33.345Z,8.97
2018-03-19T11:14:01.756Z,10.73
2018-03-19T11:16:30.166Z,7.90
2018-03-19T11:18:58.627Z,10.23
2018-03-19T11:21:27.034Z,10.00
2018-03-19T11:23:55.445Z,9.43
2018-03-19T11:26:23.897Z,8.03
2018-03-19T11:28:52.294Z,9.27
2018-03-19T11:31:20.698Z,6.70
2018-03-19T11:33:49.194Z,8.30
2018-03-19T11:36:17.583Z,7.73
2018-03-19T11:38:45.988Z,7.93
2018-03-19T11:41:14.441Z,10.00
2018-03-19T11:43:42.856Z,10.20
2018-03-19T11:46:11.272Z,9.30
2018-03-19T11:48:39.727Z,9.17
2018-03-19T11:51:08.122Z,7.63
2018-03-19T11:53:36.536Z,8.93
2018-03-19T11:56:05.093Z,8.03
2018-03-19T11:58:33.507Z,7.73
2018-03-19T12:01:01.898Z,7.77
2018-03-19T12:03:30.350Z,12.30
2018-03-19T12:05:58.762Z,7.63
2018-03-19T12:08:27.168Z,9.87
2018-03-19T12:10:55.618Z,8.37
2018-03-19T12:13:24.034Z,7.60
2018-03-19T12:15:52.430Z,8.83
2018-03-19T12:18:20.887Z,9.23
2018-03-19T12:20:49.286Z,9.23
2018-03-19T12:23:17.720Z,11.50
2018-03-19T12:25:46.182Z,9.03
2018-03-19T12:28:14.608Z,8.93
2018-03-19T12:30:43.022Z,8.10
2018-03-19T12:33:11.471Z,7.50
2018-03-19T12:35:39.920Z,10.47
2018-03-19T12:38:08.335Z,6.23
2018-03-19T12:40:36.796Z,6.60
2018-03-19T12:43:05.201Z,7.73
2018-03-19T12:45:33.603Z,8.90
2018-03-19T12:48:02.074Z,11.13
2018-03-19T12:50:30.498Z,8.90
2018-03-19T12:52:58.903Z,8.30
2018-03-19T12:55:27.349Z,8.03
2018-03-19T12:57:55.757Z,6.47
2018-03-19T13:00:24.169Z,8.40
2018-03-19T13:02:52.624Z,7.67
2018-03-19T13:05:21.040Z,7.27
2018-03-19T13:07:49.448Z,7.40
2018-03-19T13:10:17.903Z,6.17
2018-03-19T13:12:46.315Z,8.63
2018-03-19T13:15:14.719Z,11.00
2018-03-19T13:17:43.206Z,7.80
2018-03-19T13:20:11.615Z,8.40
2018-03-19T13:22:40.013Z,7.40
2018-03-19T13:25:08.454Z,9.80
2018-03-19T13:27:36.864Z,7.23
2018-03-19T13:30:05.301Z,7.10
2018-03-19T13:32:33.748Z,8.50
2018-03-19T13:35:02.152Z,9.00
2018-03-19T13:37:30.560Z,11.00
2018-03-19T13:39:59.021Z,9.60
2018-03-19T13:42:27.426Z,7.53
2018-03-19T13:44:56.772Z,6.83
2018-03-19T13:47:25.211Z,7.30
2018-03-19T13:49:53.606Z,7.27
2018-03-19T13:52:22.023Z,7.93
2018-03-19T13:54:50.467Z,7.83
2018-03-19T13:57:18.854Z,7.87
2018-03-19T13:59:47.292Z,7.47
2018-03-19T14:02:15.730Z,7.00
2018-03-19T14:04:44.134Z,6.70
2018-03-19T14:07:12.570Z,8.00
2018-03-19T14:09:41.007Z,6.10
2018-03-19T14:12:09.398Z,8.33
2018-03-19T14:14:37.807Z,6.47
2018-03-19T14:17:06.334Z,6.73
2018-03-19T14:19:34.710Z,6.17
2018-03-19T14:22:03.139Z,7.77
2018-03-19T14:24:31.594Z,6.80
2018-03-19T14:27:00.000Z,6.77
2018-03-19T14:29:28.398Z,8.30
2018-03-19T14:31:56.838Z,6.73
2018-03-19T14:34:25.243Z,5.77
2018-03-19T14:36:53.649Z,6.43
2018-03-19T14:39:22.082Z,5.80
2018-03-19T14:41:50.482Z,6.13
2018-03-19T14:44:18.876Z,9.87
2018-03-19T14:46:47.310Z,5.37
2018-03-19T14:49:15.724Z,17.03
2018-03-19T14:51:44.904Z,11.13
2018-03-19T14:54:13.355Z,8.27
2018-03-19T14:56:41.746Z,7.53
2018-03-19T14:59:10.151Z,5.47
2018-03-19T15:01:38.616Z,7.10
2018-03-19T15:04:07.021Z,6.80
2018-03-19T15:06:35.436Z,5.67
2018-03-19T15:09:03.948Z,7.30
2018-03-19T15:11:32.353Z,7.27
2018-03-19T15:14:00.746Z,6.23
2018-03-19T15:16:29.396Z,5.20
2018-03-19T15:18:57.803Z,7.00
2018-03-19T15:21:26.193Z,5.47
2018-03-19T15:23:54.625Z,7.83
2018-03-19T15:26:23.044Z,6.30
2018-03-19T15:28:51.459Z,10.80
2018-03-19T15:31:19.919Z,6.53
2018-03-19T15:33:48.321Z,5.60
2018-03-19T15:36:16.718Z,7.00
2018-03-19T15:38:45.180Z,7.47
2018-03-19T15:41:13.596Z,6.83
2018-03-19T15:43:41.995Z,4.77
2018-03-19T15:46:10.444Z,5.77
2018-03-19T15:48:38.842Z,6.07
2018-03-19T15:51:07.234Z,4.77
2018-03-19T15:53:35.701Z,5.10
2018-03-19T15:56:04.138Z,6.33
2018-03-19T15:58:32.540Z,7.03
2018-03-19T16:01:01.198Z,5.37
2018-03-19T16:03:29.595Z,4.53
2018-03-19T16:05:57.999Z,6.03
2018-03-19T16:08:26.430Z,6.40
2018-03-19T16:10:54.860Z,10.23
2018-03-19T16:13:23.259Z,7.13
2018-03-19T16:15:51.707Z,6.03
2018-03-19T16:18:20.111Z,11.77
2018-03-19T16:20:48.525Z,8.67
2018-03-19T16:23:16.991Z,5.87
2018-03-19T16:25:45.401Z,6.67
2018-03-19T16:28:13.802Z,8.70
2018-03-19T16:30:42.252Z,14.67
2018-03-19T16:33:10.668Z,17.43
2018-03-19T16:35:39.074Z,16.23
2018-03-19T16:38:07.526Z,17.77
2018-03-19T16:40:35.935Z,18.43
2018-03-19T16:43:04.338Z,15.70
2018-03-19T16:45:33.128Z,12.60
2018-03-19T16:48:01.566Z,7.43
2018-03-19T16:50:29.954Z,6.83
2018-03-19T16:52:58.391Z,8.40
2018-03-19T16:55:26.782Z,9.50
2018-03-19T16:57:55.173Z,6.13
2018-03-19T17:00:23.619Z,8.40
2018-03-19T17:02:52.030Z,9.10
2018-03-19T17:05:20.434Z,6.97
2018-03-19T17:07:49.077Z,8.33
2018-03-19T17:10:17.468Z,7.20
2018-03-19T17:12:45.906Z,7.10
2018-03-19T17:15:14.355Z,6.87
2018-03-19T17:17:42.750Z,7.87
2018-03-19T17:20:11.146Z,5.97
2018-03-19T17:22:39.605Z,7.83
2018-03-19T17:25:08.031Z,8.60
2018-03-19T17:27:36.448Z,8.47
2018-03-19T17:30:04.916Z,8.37
2018-03-19T17:32:33.328Z,7.03
2018-03-19T17:35:01.769Z,8.30
2018-03-19T17:37:30.201Z,8.70
2018-03-19T17:39:58.594Z,6.80
2018-03-19T17:42:26.989Z,8.40
2018-03-19T17:44:55.430Z,9.30
2018-03-19T17:47:23.839Z,6.50
2018-03-19T17:49:52.234Z,5.87
2018-03-19T17:52:20.691Z,5.67
2018-03-19T17:54:49.099Z,7.33
2018-03-19T17:57:17.508Z,7.07
2018-03-19T17:59:45.968Z,8.97
2018-03-19T18:02:14.374Z,8.77
2018-03-19T18:04:42.766Z,7.60
2018-03-19T18:07:11.313Z,9.57
2018-03-19T18:09:39.702Z,7.87
2018-03-19T18:12:08.113Z,7.83
2018-03-19T18:14:36.551Z,8.00
2018-03-19T18:17:04.954Z,8.87
2018-03-19T18:19:33.369Z,9.63
2018-03-19T18:22:01.824Z,8.47
2018-03-19T18:24:30.229Z,11.77
2018-03-19T18:26:58.649Z,31.77
2018-03-19T18:29:27.258Z,30.53
2018-03-19T18:31:55.680Z,42.07
2018-03-19T18:34:24.090Z,27.50
2018-03-19T18:36:52.575Z,17.80
2018-03-19T18:39:20.980Z,13.50
2018-03-19T18:41:49.397Z,12.47
2018-03-19T18:44:17.877Z,10.57
2018-03-19T18:46:46.301Z,9.97
2018-03-19T18:49:14.708Z,9.80
2018-03-19T18:51:43.161Z,9.70
2018-03-19T18:54:11.572Z,10.50
2018-03-19T18:56:39.996Z,10.23
2018-03-19T18:59:08.452Z,8.90
2018-03-19T19:01:36.856Z,9.30
2018-03-19T19:04:05.296Z,8.27
2018-03-19T19:06:33.740Z,7.30
2018-03-19T19:09:02.154Z,8.77
2018-03-19T19:11:30.564Z,8.83
2018-03-19T19:13:59.064Z,10.93
2018-03-19T19:16:27.473Z,11.00
2018-03-19T19:18:55.891Z,12.93
2018-03-19T19:21:24.392Z,23.57
2018-03-19T19:23:52.814Z,20.57
2018-03-19T19:26:21.245Z,21.03
2018-03-19T19:28:49.729Z,18.67
2018-03-19T19:31:18.152Z,23.13
2018-03-19T19:33:46.584Z,33.33
2018-03-19T19:36:15.048Z,35.27
2018-03-19T19:38:43.472Z,46.40
2018-03-19T19:41:11.881Z,42.50
2018-03-19T19:43:40.344Z,42.83
2018-03-19T19:46:08.785Z,36.63
2018-03-19T19:48:37.210Z,37.67
2018-03-19T19:51:05.941Z,26.10
2018-03-19T19:53:34.358Z,25.00
2018-03-19T19:56:02.774Z,22.03
2018-03-19T19:58:31.226Z,15.87
2018-03-19T20:00:59.652Z,16.87
2018-03-19T20:03:28.059Z,14.20
2018-03-19T20:05:56.513Z,13.20
2018-03-19T20:08:24.931Z,10.67
2018-03-19T20:10:53.369Z,11.50
2018-03-19T20:13:21.850Z,12.90
2018-03-19T20:15:50.262Z,11.50
2018-03-19T20:18:18.681Z,12.70
2018-03-19T20:20:47.156Z,11.10
2018-03-19T20:23:15.566Z,11.20
2018-03-19T20:25:43.984Z,10.77
2018-03-19T20:28:12.455Z,12.43
2018-03-19T20:30:40.870Z,9.50
2018-03-19T20:33:09.291Z,11.93
2018-03-19T20:35:37.743Z,12.37
2018-03-19T20:38:06.150Z,11.97
2018-03-19T20:40:34.558Z,15.17
2018-03-19T20:43:03.024Z,16.93
2018-03-19T20:45:31.439Z,11.90
2018-03-19T20:47:59.842Z,13.47
2018-03-19T20:50:28.303Z,12.23
2018-03-19T20:52:56.717Z,11.67
2018-03-19T20:55:25.134Z,10.13
2018-03-19T20:57:53.596Z,10.53
2018-03-19T21:00:22.006Z,16.60
2018-03-19T21:02:50.478Z,14.07
2018-03-19T21:05:18.924Z,10.77
2018-03-19T21:07:47.345Z,13.13
2018-03-19T21:10:15.767Z,13.73
2018-03-19T21:12:44.227Z,12.00
2018-03-19T21:15:12.639Z,12.87
2018-03-19T21:17:41.062Z,14.77
2018-03-19T21:20:09.515Z,14.57
2018-03-19T21:22:37.917Z,12.00
2018-03-19T21:25:06.338Z,13.60
2018-03-19T21:27:34.806Z,14.60
2018-03-19T21:30:03.252Z,16.80
2018-03-19T21:32:31.659Z,12.90
2018-03-19T21:35:00.144Z,13.40
2018-03-19T21:37:28.554Z,11.93
2018-03-19T21:39:56.972Z,14.60
2018-03-19T21:42:25.423Z,11.70
2018-03-19T21:44:53.830Z,12.87
2018-03-19T21:47:22.257Z,13.00
2018-03-19T21:49:50.730Z,15.07
2018-03-19T21:52:19.159Z,12.23
2018-03-19T21:54:47.575Z,15.30
2018-03-19T21:57:16.036Z,11.43
2018-03-19T21:59:44.461Z,10.43
2018-03-19T22:02:12.884Z,10.83
2018-03-19T22:04:41.353Z,9.70
2018-03-19T22:07:09.762Z,10.00
2018-03-19T22:09:38.170Z,10.33
2018-03-19T22:12:06.628Z,10.90
2018-03-19T22:14:35.057Z,12.13
2018-03-19T22:17:03.470Z,10.70
2018-03-19T22:19:31.923Z,11.07
2018-03-19T22:22:00.347Z,11.33
2018-03-19T22:24:28.759Z,10.97
2018-03-19T22:26:57.234Z,12.83
2018-03-19T22:29:25.642Z,9.23
2018-03-19T22:31:54.038Z,9.57
2018-03-19T22:34:22.680Z,11.70
2018-03-19T22:36:51.104Z,10.90
2018-03-19T22:39:19.545Z,9.17
2018-03-19T22:41:47.990Z,9.90
2018-03-19T22:44:16.399Z,9.87
2018-03-19T22:46:44.802Z,9.93
2018-03-19T22:49:13.251Z,9.90
2018-03-19T22:51:41.668Z,10.53
2018-03-19T22:54:10.074Z,13.30
2018-03-19T22:56:38.534Z,14.60
2018-03-19T22:59:06.952Z,12.13
2018-03-19T23:01:35.368Z,14.27
2018-03-19T23:04:03.840Z,13.60
2018-03-19T23:06:32.255Z,16.13
2018-03-19T23:09:00.680Z,13.83
2018-03-19T23:11:29.162Z,12.13
2018-03-19T23:13:57.573Z,13.07
2018-03-19T23:16:25.997Z,11.63
2018-03-19T23:18:54.461Z,12.57
2018-03-19T23:21:22.870Z,10.77
2018-03-19T23:23:51.278Z,10.73
2018-03-19T23:26:19.732Z,11.53
2018-03-19T23:28:48.156Z,12.67
2018-03-19T23:31:16.566Z,9.50
2018-03-19T23:33:45.006Z,10.73
2018-03-19T23:36:13.410Z,10.57
2018-03-19T23:38:41.835Z,10.17
2018-03-19T23:41:10.283Z,10.50
2018-03-19T23:43:38.697Z,11.20
2018-03-19T23:46:07.106Z,12.50
2018-03-19T23:48:35.564Z,12.50
2018-03-19T23:51:03.980Z,9.60
2018-03-19T23:53:32.383Z,9.53
2018-03-19T23:56:00.835Z,9.37
2018-03-19T23:58:29.239Z,13.30
